Alexandra, New Zealand
Current Conditions -  °F | °C
As of 4:00 PM on Monday 22 Dec 2014 (Local Time) from NZCH Reporting Station
Clear Clear  
Wind Chill: 66°   Ceiling: Unl
Heat Index: 66°   Visibility: 6mi
Dew Point: 55°   Wind: 16mph
Humidity: 68%   Direction: 80°E
Pressure: 30.06"   Gusts: NA
Location:  45.25°S, 169.39°E
Report Text: NZCH 220400Z AUTO 08014KT 9999 NCD 19/13 Q1018 NOSIG
Loading
Personal Weather Stations






























Interactive Weather Map New forecast layout! Learn more

10-Day Weather Forecast

Advertisements
Track Severe Weather on mobile